sensor_id;sensor_type;location;lat;lon;timestamp;P1;durP1;ratioP1;P2;durP2;ratioP2
21032;SDS011;10675;47.976;7.824;2023-04-24T00:01:23;0.47;;;0.47;;
21032;SDS011;10675;47.976;7.824;2023-04-24T00:03:49;0.40;;;0.40;;
21032;SDS011;10675;47.976;7.824;2023-04-24T00:06:14;0.50;;;0.47;;
21032;SDS011;10675;47.976;7.824;2023-04-24T00:08:41;0.60;;;0.60;;
21032;SDS011;10675;47.976;7.824;2023-04-24T00:11:07;0.40;;;0.40;;
21032;SDS011;10675;47.976;7.824;2023-04-24T00:13:34;3.07;;;0.83;;
21032;SDS011;10675;47.976;7.824;2023-04-24T00:16:00;0.30;;;0.30;;
21032;SDS011;10675;47.976;7.824;2023-04-24T00:18:25;0.50;;;0.50;;
21032;SDS011;10675;47.976;7.824;2023-04-24T00:20:51;0.40;;;0.40;;
21032;SDS011;10675;47.976;7.824;2023-04-24T00:23:17;0.37;;;0.37;;
21032;SDS011;10675;47.976;7.824;2023-04-24T00:25:42;0.87;;;0.63;;
21032;SDS011;10675;47.976;7.824;2023-04-24T00:28:08;1.60;;;0.40;;
21032;SDS011;10675;47.976;7.824;2023-04-24T00:30:33;0.60;;;0.40;;
21032;SDS011;10675;47.976;7.824;2023-04-24T00:32:59;0.30;;;0.30;;
21032;SDS011;10675;47.976;7.824;2023-04-24T00:35:24;0.40;;;0.40;;
21032;SDS011;10675;47.976;7.824;2023-04-24T00:37:50;0.93;;;0.30;;
21032;SDS011;10675;47.976;7.824;2023-04-24T00:40:16;0.43;;;0.40;;
21032;SDS011;10675;47.976;7.824;2023-04-24T00:42:41;0.33;;;0.20;;
21032;SDS011;10675;47.976;7.824;2023-04-24T00:45:08;0.30;;;0.30;;
21032;SDS011;10675;47.976;7.824;2023-04-24T00:47:33;0.40;;;0.40;;
21032;SDS011;10675;47.976;7.824;2023-04-24T00:50:03;0.50;;;0.50;;
21032;SDS011;10675;47.976;7.824;2023-04-24T00:52:30;0.40;;;0.40;;
21032;SDS011;10675;47.976;7.824;2023-04-24T00:54:56;0.20;;;0.20;;
21032;SDS011;10675;47.976;7.824;2023-04-24T00:57:22;0.57;;;0.40;;
21032;SDS011;10675;47.976;7.824;2023-04-24T00:59:48;0.83;;;0.43;;
21032;SDS011;10675;47.976;7.824;2023-04-24T01:02:14;1.53;;;0.40;;
21032;SDS011;10675;47.976;7.824;2023-04-24T01:04:40;4.27;;;0.50;;
21032;SDS011;10675;47.976;7.824;2023-04-24T01:07:06;0.40;;;0.40;;
21032;SDS011;10675;47.976;7.824;2023-04-24T01:09:35;0.30;;;0.30;;
21032;SDS011;10675;47.976;7.824;2023-04-24T01:12:02;1.80;;;0.57;;
21032;SDS011;10675;47.976;7.824;2023-04-24T01:14:28;0.20;;;0.20;;
21032;SDS011;10675;47.976;7.824;2023-04-24T01:16:55;0.30;;;0.30;;
21032;SDS011;10675;47.976;7.824;2023-04-24T01:19:22;0.40;;;0.40;;
21032;SDS011;10675;47.976;7.824;2023-04-24T01:21:48;0.60;;;0.37;;
21032;SDS011;10675;47.976;7.824;2023-04-24T01:24:16;3.20;;;0.50;;
21032;SDS011;10675;47.976;7.824;2023-04-24T01:26:44;0.43;;;0.30;;
21032;SDS011;10675;47.976;7.824;2023-04-24T01:29:10;0.50;;;0.50;;
21032;SDS011;10675;47.976;7.824;2023-04-24T01:31:36;0.20;;;0.20;;
21032;SDS011;10675;47.976;7.824;2023-04-24T01:34:02;0.40;;;0.40;;
21032;SDS011;10675;47.976;7.824;2023-04-24T01:36:28;0.90;;;0.50;;
21032;SDS011;10675;47.976;7.824;2023-04-24T01:38:56;2.53;;;0.50;;
21032;SDS011;10675;47.976;7.824;2023-04-24T01:41:21;1.17;;;0.30;;
21032;SDS011;10675;47.976;7.824;2023-04-24T01:43:48;0.40;;;0.40;;
21032;SDS011;10675;47.976;7.824;2023-04-24T01:46:14;0.90;;;0.50;;
21032;SDS011;10675;47.976;7.824;2023-04-24T01:48:40;1.73;;;0.63;;
21032;SDS011;10675;47.976;7.824;2023-04-24T01:51:06;2.57;;;0.70;;
21032;SDS011;10675;47.976;7.824;2023-04-24T01:53:32;1.80;;;0.60;;
21032;SDS011;10675;47.976;7.824;2023-04-24T01:55:57;2.30;;;0.67;;
21032;SDS011;10675;47.976;7.824;2023-04-24T01:58:23;0.53;;;0.30;;
21032;SDS011;10675;47.976;7.824;2023-04-24T02:00:49;0.67;;;0.47;;
21032;SDS011;10675;47.976;7.824;2023-04-24T02:03:14;3.97;;;0.63;;
21032;SDS011;10675;47.976;7.824;2023-04-24T02:05:40;1.37;;;0.53;;
21032;SDS011;10675;47.976;7.824;2023-04-24T02:08:08;3.30;;;0.60;;
21032;SDS011;10675;47.976;7.824;2023-04-24T02:10:33;0.40;;;0.40;;
21032;SDS011;10675;47.976;7.824;2023-04-24T02:12:59;1.27;;;0.40;;
21032;SDS011;10675;47.976;7.824;2023-04-24T02:15:25;0.40;;;0.40;;
21032;SDS011;10675;47.976;7.824;2023-04-24T02:17:51;2.77;;;0.53;;
21032;SDS011;10675;47.976;7.824;2023-04-24T02:20:16;0.73;;;0.37;;
21032;SDS011;10675;47.976;7.824;2023-04-24T02:25:10;0.50;;;0.50;;
21032;SDS011;10675;47.976;7.824;2023-04-24T02:27:35;0.50;;;0.50;;
21032;SDS011;10675;47.976;7.824;2023-04-24T02:30:01;1.30;;;0.63;;
21032;SDS011;10675;47.976;7.824;2023-04-24T02:32:28;0.50;;;0.50;;
21032;SDS011;10675;47.976;7.824;2023-04-24T02:34:53;1.40;;;0.47;;
21032;SDS011;10675;47.976;7.824;2023-04-24T02:37:19;0.70;;;0.70;;
21032;SDS011;10675;47.976;7.824;2023-04-24T02:39:44;1.50;;;0.40;;
21032;SDS011;10675;47.976;7.824;2023-04-24T02:42:10;1.10;;;0.53;;
21032;SDS011;10675;47.976;7.824;2023-04-24T02:44:35;1.10;;;0.40;;
21032;SDS011;10675;47.976;7.824;2023-04-24T02:47:01;0.73;;;0.50;;
21032;SDS011;10675;47.976;7.824;2023-04-24T02:49:26;0.30;;;0.30;;
21032;SDS011;10675;47.976;7.824;2023-04-24T02:51:52;2.93;;;0.63;;
21032;SDS011;10675;47.976;7.824;2023-04-24T02:54:17;1.17;;;0.43;;
21032;SDS011;10675;47.976;7.824;2023-04-24T02:56:43;0.37;;;0.37;;
21032;SDS011;10675;47.976;7.824;2023-04-24T02:59:08;0.77;;;0.40;;
21032;SDS011;10675;47.976;7.824;2023-04-24T03:01:35;0.60;;;0.37;;
21032;SDS011;10675;47.976;7.824;2023-04-24T03:04:00;1.10;;;0.40;;
21032;SDS011;10675;47.976;7.824;2023-04-24T03:06:26;1.40;;;0.60;;
21032;SDS011;10675;47.976;7.824;2023-04-24T03:08:53;0.57;;;0.43;;
21032;SDS011;10675;47.976;7.824;2023-04-24T03:11:19;3.10;;;0.60;;
21032;SDS011;10675;47.976;7.824;2023-04-24T03:13:45;1.60;;;0.40;;
21032;SDS011;10675;47.976;7.824;2023-04-24T03:16:10;0.90;;;0.57;;
21032;SDS011;10675;47.976;7.824;2023-04-24T03:18:36;1.70;;;0.53;;
21032;SDS011;10675;47.976;7.824;2023-04-24T03:21:01;1.60;;;0.70;;
21032;SDS011;10675;47.976;7.824;2023-04-24T03:23:28;0.70;;;0.40;;
21032;SDS011;10675;47.976;7.824;2023-04-24T03:25:53;0.40;;;0.40;;
21032;SDS011;10675;47.976;7.824;2023-04-24T03:28:20;0.93;;;0.60;;
21032;SDS011;10675;47.976;7.824;2023-04-24T03:30:45;0.33;;;0.33;;
21032;SDS011;10675;47.976;7.824;2023-04-24T03:33:11;0.40;;;0.40;;
21032;SDS011;10675;47.976;7.824;2023-04-24T03:35:36;0.40;;;0.40;;
21032;SDS011;10675;47.976;7.824;2023-04-24T03:38:02;0.53;;;0.47;;
21032;SDS011;10675;47.976;7.824;2023-04-24T03:40:29;0.50;;;0.50;;
21032;SDS011;10675;47.976;7.824;2023-04-24T03:42:55;0.40;;;0.40;;
21032;SDS011;10675;47.976;7.824;2023-04-24T03:45:20;1.50;;;0.60;;
21032;SDS011;10675;47.976;7.824;2023-04-24T03:47:46;0.87;;;0.50;;
21032;SDS011;10675;47.976;7.824;2023-04-24T03:50:11;0.40;;;0.40;;
21032;SDS011;10675;47.976;7.824;2023-04-24T03:52:37;0.40;;;0.40;;
21032;SDS011;10675;47.976;7.824;2023-04-24T03:55:02;0.50;;;0.30;;
21032;SDS011;10675;47.976;7.824;2023-04-24T03:57:28;0.53;;;0.53;;
21032;SDS011;10675;47.976;7.824;2023-04-24T03:59:53;0.70;;;0.70;;
21032;SDS011;10675;47.976;7.824;2023-04-24T04:02:19;1.30;;;0.63;;
21032;SDS011;10675;47.976;7.824;2023-04-24T04:04:45;0.60;;;0.60;;
21032;SDS011;10675;47.976;7.824;2023-04-24T04:07:10;1.20;;;0.53;;
21032;SDS011;10675;47.976;7.824;2023-04-24T04:09:36;1.77;;;0.70;;
21032;SDS011;10675;47.976;7.824;2023-04-24T04:12:01;2.40;;;0.70;;
21032;SDS011;10675;47.976;7.824;2023-04-24T04:14:27;2.57;;;0.70;;
21032;SDS011;10675;47.976;7.824;2023-04-24T04:16:53;0.50;;;0.50;;
21032;SDS011;10675;47.976;7.824;2023-04-24T04:19:19;0.53;;;0.50;;
21032;SDS011;10675;47.976;7.824;2023-04-24T04:21:44;0.80;;;0.70;;
21032;SDS011;10675;47.976;7.824;2023-04-24T04:24:10;1.10;;;0.60;;
21032;SDS011;10675;47.976;7.824;2023-04-24T04:26:36;2.07;;;0.87;;
21032;SDS011;10675;47.976;7.824;2023-04-24T04:29:02;1.13;;;0.70;;
21032;SDS011;10675;47.976;7.824;2023-04-24T04:31:28;1.67;;;0.80;;
21032;SDS011;10675;47.976;7.824;2023-04-24T04:33:55;1.10;;;0.67;;
21032;SDS011;10675;47.976;7.824;2023-04-24T04:36:20;0.83;;;0.83;;
21032;SDS011;10675;47.976;7.824;2023-04-24T04:38:46;1.33;;;0.90;;
21032;SDS011;10675;47.976;7.824;2023-04-24T04:41:11;0.93;;;0.80;;
21032;SDS011;10675;47.976;7.824;2023-04-24T04:43:37;0.90;;;0.70;;
21032;SDS011;10675;47.976;7.824;2023-04-24T04:46:04;1.77;;;0.90;;
21032;SDS011;10675;47.976;7.824;2023-04-24T04:48:30;1.83;;;0.90;;
21032;SDS011;10675;47.976;7.824;2023-04-24T04:50:56;2.07;;;1.00;;
21032;SDS011;10675;47.976;7.824;2023-04-24T04:53:22;0.90;;;0.90;;
21032;SDS011;10675;47.976;7.824;2023-04-24T04:55:48;0.60;;;0.60;;
21032;SDS011;10675;47.976;7.824;2023-04-24T04:58:13;1.70;;;1.00;;
21032;SDS011;10675;47.976;7.824;2023-04-24T05:00:39;0.97;;;0.80;;
21032;SDS011;10675;47.976;7.824;2023-04-24T05:03:04;0.67;;;0.67;;
21032;SDS011;10675;47.976;7.824;2023-04-24T05:05:30;0.50;;;0.50;;
21032;SDS011;10675;47.976;7.824;2023-04-24T05:07:55;1.33;;;0.90;;
21032;SDS011;10675;47.976;7.824;2023-04-24T05:10:21;1.03;;;0.70;;
21032;SDS011;10675;47.976;7.824;2023-04-24T05:12:46;0.77;;;0.70;;
21032;SDS011;10675;47.976;7.824;2023-04-24T05:15:12;1.27;;;1.00;;
21032;SDS011;10675;47.976;7.824;2023-04-24T05:17:37;1.43;;;0.80;;
21032;SDS011;10675;47.976;7.824;2023-04-24T05:20:04;2.83;;;1.00;;
21032;SDS011;10675;47.976;7.824;2023-04-24T05:22:31;1.10;;;1.10;;
21032;SDS011;10675;47.976;7.824;2023-04-24T05:24:58;3.70;;;1.00;;
21032;SDS011;10675;47.976;7.824;2023-04-24T05:27:24;1.00;;;1.00;;
21032;SDS011;10675;47.976;7.824;2023-04-24T05:29:49;1.43;;;1.00;;
21032;SDS011;10675;47.976;7.824;2023-04-24T05:32:15;0.90;;;0.87;;
21032;SDS011;10675;47.976;7.824;2023-04-24T05:34:41;0.77;;;0.77;;
21032;SDS011;10675;47.976;7.824;2023-04-24T05:37:06;2.83;;;0.90;;
21032;SDS011;10675;47.976;7.824;2023-04-24T05:39:34;2.10;;;0.90;;
21032;SDS011;10675;47.976;7.824;2023-04-24T05:42:00;1.37;;;1.07;;
21032;SDS011;10675;47.976;7.824;2023-04-24T05:44:26;1.23;;;1.10;;
21032;SDS011;10675;47.976;7.824;2023-04-24T05:46:52;2.57;;;1.20;;
21032;SDS011;10675;47.976;7.824;2023-04-24T05:49:18;1.60;;;1.20;;
21032;SDS011;10675;47.976;7.824;2023-04-24T05:51:43;2.40;;;1.03;;
21032;SDS011;10675;47.976;7.824;2023-04-24T05:54:09;1.50;;;1.40;;
21032;SDS011;10675;47.976;7.824;2023-04-24T05:56:37;1.77;;;1.23;;
21032;SDS011;10675;47.976;7.824;2023-04-24T05:59:02;1.37;;;1.10;;
21032;SDS011;10675;47.976;7.824;2023-04-24T06:01:28;1.50;;;1.40;;
21032;SDS011;10675;47.976;7.824;2023-04-24T06:03:54;1.10;;;1.00;;
21032;SDS011;10675;47.976;7.824;2023-04-24T06:06:20;1.33;;;1.23;;
21032;SDS011;10675;47.976;7.824;2023-04-24T06:08:45;1.30;;;1.20;;
21032;SDS011;10675;47.976;7.824;2023-04-24T06:11:11;3.73;;;1.30;;
21032;SDS011;10675;47.976;7.824;2023-04-24T06:13:36;1.10;;;1.03;;
21032;SDS011;10675;47.976;7.824;2023-04-24T06:16:02;1.77;;;1.60;;
21032;SDS011;10675;47.976;7.824;2023-04-24T06:18:27;1.77;;;1.20;;
21032;SDS011;10675;47.976;7.824;2023-04-24T06:20:53;2.27;;;1.10;;
21032;SDS011;10675;47.976;7.824;2023-04-24T06:23:20;1.60;;;1.33;;
21032;SDS011;10675;47.976;7.824;2023-04-24T06:25:45;1.00;;;1.00;;
21032;SDS011;10675;47.976;7.824;2023-04-24T06:28:11;0.93;;;0.93;;
21032;SDS011;10675;47.976;7.824;2023-04-24T06:30:37;1.67;;;1.30;;
21032;SDS011;10675;47.976;7.824;2023-04-24T06:33:03;1.30;;;1.20;;
21032;SDS011;10675;47.976;7.824;2023-04-24T06:35:28;2.53;;;1.40;;
21032;SDS011;10675;47.976;7.824;2023-04-24T06:37:54;2.00;;;1.37;;
21032;SDS011;10675;47.976;7.824;2023-04-24T06:40:21;1.07;;;1.07;;
21032;SDS011;10675;47.976;7.824;2023-04-24T06:42:47;1.13;;;1.10;;
21032;SDS011;10675;47.976;7.824;2023-04-24T06:45:12;2.43;;;1.37;;
21032;SDS011;10675;47.976;7.824;2023-04-24T06:47:38;1.07;;;1.03;;
21032;SDS011;10675;47.976;7.824;2023-04-24T06:50:03;2.20;;;1.40;;
21032;SDS011;10675;47.976;7.824;2023-04-24T06:52:30;1.90;;;1.30;;
21032;SDS011;10675;47.976;7.824;2023-04-24T06:55:01;2.00;;;1.30;;
21032;SDS011;10675;47.976;7.824;2023-04-24T06:57:28;1.47;;;1.37;;
21032;SDS011;10675;47.976;7.824;2023-04-24T06:59:53;1.53;;;1.23;;
21032;SDS011;10675;47.976;7.824;2023-04-24T07:02:19;1.10;;;1.10;;
21032;SDS011;10675;47.976;7.824;2023-04-24T07:04:45;3.00;;;1.67;;
21032;SDS011;10675;47.976;7.824;2023-04-24T07:07:12;1.33;;;1.23;;
21032;SDS011;10675;47.976;7.824;2023-04-24T07:09:39;1.13;;;1.03;;
21032;SDS011;10675;47.976;7.824;2023-04-24T07:12:09;2.43;;;1.43;;
21032;SDS011;10675;47.976;7.824;2023-04-24T07:14:38;1.10;;;1.00;;
21032;SDS011;10675;47.976;7.824;2023-04-24T07:17:04;1.30;;;0.93;;
21032;SDS011;10675;47.976;7.824;2023-04-24T07:19:31;3.03;;;1.20;;
21032;SDS011;10675;47.976;7.824;2023-04-24T07:21:58;2.17;;;1.20;;
21032;SDS011;10675;47.976;7.824;2023-04-24T07:24:24;1.60;;;1.20;;
21032;SDS011;10675;47.976;7.824;2023-04-24T07:26:50;1.90;;;1.30;;
21032;SDS011;10675;47.976;7.824;2023-04-24T07:29:17;0.90;;;0.90;;
21032;SDS011;10675;47.976;7.824;2023-04-24T07:31:42;1.03;;;1.03;;
21032;SDS011;10675;47.976;7.824;2023-04-24T07:34:08;0.97;;;0.97;;
21032;SDS011;10675;47.976;7.824;2023-04-24T07:36:33;2.97;;;0.80;;
21032;SDS011;10675;47.976;7.824;2023-04-24T07:38:59;0.80;;;0.80;;
21032;SDS011;10675;47.976;7.824;2023-04-24T07:41:24;1.23;;;1.20;;
21032;SDS011;10675;47.976;7.824;2023-04-24T07:43:50;1.30;;;1.20;;
21032;SDS011;10675;47.976;7.824;2023-04-24T07:46:17;1.03;;;0.97;;
21032;SDS011;10675;47.976;7.824;2023-04-24T07:48:43;1.30;;;1.20;;
21032;SDS011;10675;47.976;7.824;2023-04-24T07:51:08;3.80;;;1.50;;
21032;SDS011;10675;47.976;7.824;2023-04-24T07:53:35;1.43;;;0.97;;
21032;SDS011;10675;47.976;7.824;2023-04-24T07:56:01;1.77;;;1.00;;
21032;SDS011;10675;47.976;7.824;2023-04-24T07:58:26;1.43;;;1.10;;
21032;SDS011;10675;47.976;7.824;2023-04-24T08:00:52;2.30;;;1.17;;
21032;SDS011;10675;47.976;7.824;2023-04-24T08:03:18;2.57;;;1.30;;
21032;SDS011;10675;47.976;7.824;2023-04-24T08:05:44;1.53;;;1.40;;
21032;SDS011;10675;47.976;7.824;2023-04-24T08:08:10;1.40;;;1.30;;
21032;SDS011;10675;47.976;7.824;2023-04-24T08:10:36;3.03;;;1.00;;
21032;SDS011;10675;47.976;7.824;2023-04-24T08:13:01;2.53;;;1.37;;
21032;SDS011;10675;47.976;7.824;2023-04-24T08:15:27;1.37;;;1.23;;
21032;SDS011;10675;47.976;7.824;2023-04-24T08:17:53;1.50;;;1.40;;
21032;SDS011;10675;47.976;7.824;2023-04-24T08:20:18;1.73;;;1.37;;
21032;SDS011;10675;47.976;7.824;2023-04-24T08:22:44;1.07;;;1.07;;
21032;SDS011;10675;47.976;7.824;2023-04-24T08:25:12;1.70;;;1.40;;
21032;SDS011;10675;47.976;7.824;2023-04-24T08:27:37;1.37;;;1.10;;
21032;SDS011;10675;47.976;7.824;2023-04-24T08:30:04;1.37;;;1.23;;
21032;SDS011;10675;47.976;7.824;2023-04-24T08:32:31;2.13;;;1.33;;
21032;SDS011;10675;47.976;7.824;2023-04-24T08:34:57;2.80;;;1.50;;
21032;SDS011;10675;47.976;7.824;2023-04-24T08:37:23;3.37;;;1.50;;
21032;SDS011;10675;47.976;7.824;2023-04-24T08:39:49;6.23;;;1.33;;
21032;SDS011;10675;47.976;7.824;2023-04-24T08:42:15;1.80;;;1.17;;
21032;SDS011;10675;47.976;7.824;2023-04-24T08:44:42;1.83;;;1.37;;
21032;SDS011;10675;47.976;7.824;2023-04-24T08:47:09;2.07;;;1.53;;
21032;SDS011;10675;47.976;7.824;2023-04-24T08:49:36;2.27;;;1.23;;
21032;SDS011;10675;47.976;7.824;2023-04-24T08:52:03;2.77;;;1.20;;
21032;SDS011;10675;47.976;7.824;2023-04-24T08:54:30;2.63;;;1.03;;
21032;SDS011;10675;47.976;7.824;2023-04-24T08:56:58;1.70;;;1.20;;
21032;SDS011;10675;47.976;7.824;2023-04-24T08:59:28;4.33;;;1.40;;
21032;SDS011;10675;47.976;7.824;2023-04-24T09:01:58;1.80;;;1.30;;
21032;SDS011;10675;47.976;7.824;2023-04-24T09:04:24;1.10;;;1.00;;
21032;SDS011;10675;47.976;7.824;2023-04-24T09:06:51;1.30;;;1.20;;
21032;SDS011;10675;47.976;7.824;2023-04-24T09:09:19;1.77;;;1.30;;
21032;SDS011;10675;47.976;7.824;2023-04-24T09:11:46;1.03;;;0.93;;
21032;SDS011;10675;47.976;7.824;2023-04-24T09:14:13;0.90;;;0.90;;
21032;SDS011;10675;47.976;7.824;2023-04-24T09:16:39;2.97;;;1.00;;
21032;SDS011;10675;47.976;7.824;2023-04-24T09:19:06;1.23;;;1.07;;
21032;SDS011;10675;47.976;7.824;2023-04-24T09:21:32;2.43;;;0.93;;
21032;SDS011;10675;47.976;7.824;2023-04-24T09:23:59;1.30;;;1.00;;
21032;SDS011;10675;47.976;7.824;2023-04-24T09:26:28;1.03;;;0.93;;
21032;SDS011;10675;47.976;7.824;2023-04-24T09:28:56;2.00;;;1.13;;
21032;SDS011;10675;47.976;7.824;2023-04-24T09:31:22;2.77;;;1.07;;
21032;SDS011;10675;47.976;7.824;2023-04-24T09:34:01;1.73;;;0.90;;
21032;SDS011;10675;47.976;7.824;2023-04-24T09:36:35;1.13;;;0.90;;
21032;SDS011;10675;47.976;7.824;2023-04-24T09:39:03;0.70;;;0.70;;
21032;SDS011;10675;47.976;7.824;2023-04-24T09:41:55;1.10;;;1.00;;
21032;SDS011;10675;47.976;7.824;2023-04-24T09:44:25;0.93;;;0.93;;
21032;SDS011;10675;47.976;7.824;2023-04-24T09:46:53;5.07;;;1.20;;
21032;SDS011;10675;47.976;7.824;2023-04-24T09:49:37;0.60;;;0.60;;
21032;SDS011;10675;47.976;7.824;2023-04-24T09:54:30;3.10;;;1.07;;
21032;SDS011;10675;47.976;7.824;2023-04-24T09:56:56;1.33;;;0.80;;
21032;SDS011;10675;47.976;7.824;2023-04-24T09:59:22;2.50;;;0.73;;
21032;SDS011;10675;47.976;7.824;2023-04-24T10:01:47;0.80;;;0.80;;
21032;SDS011;10675;47.976;7.824;2023-04-24T10:04:35;0.70;;;0.70;;
21032;SDS011;10675;47.976;7.824;2023-04-24T10:07:00;0.70;;;0.70;;
21032;SDS011;10675;47.976;7.824;2023-04-24T10:09:31;1.00;;;0.50;;
21032;SDS011;10675;47.976;7.824;2023-04-24T10:11:57;1.60;;;0.80;;
21032;SDS011;10675;47.976;7.824;2023-04-24T10:14:25;2.97;;;1.00;;
21032;SDS011;10675;47.976;7.824;2023-04-24T10:16:54;1.27;;;0.90;;
21032;SDS011;10675;47.976;7.824;2023-04-24T10:19:21;1.53;;;0.93;;
21032;SDS011;10675;47.976;7.824;2023-04-24T10:21:51;1.10;;;1.10;;
21032;SDS011;10675;47.976;7.824;2023-04-24T10:24:19;0.70;;;0.70;;
21032;SDS011;10675;47.976;7.824;2023-04-24T10:26:47;0.67;;;0.60;;
21032;SDS011;10675;47.976;7.824;2023-04-24T10:29:14;1.77;;;0.87;;
21032;SDS011;10675;47.976;7.824;2023-04-24T10:31:41;0.70;;;0.70;;
21032;SDS011;10675;47.976;7.824;2023-04-24T10:34:10;0.60;;;0.60;;
21032;SDS011;10675;47.976;7.824;2023-04-24T10:36:38;0.87;;;0.73;;
21032;SDS011;10675;47.976;7.824;2023-04-24T10:39:08;1.03;;;0.50;;
21032;SDS011;10675;47.976;7.824;2023-04-24T10:41:39;2.93;;;0.70;;
21032;SDS011;10675;47.976;7.824;2023-04-24T10:44:09;0.83;;;0.83;;
21032;SDS011;10675;47.976;7.824;2023-04-24T10:46:36;2.67;;;0.80;;
21032;SDS011;10675;47.976;7.824;2023-04-24T10:49:03;1.23;;;0.83;;
21032;SDS011;10675;47.976;7.824;2023-04-24T11:00:29;0.80;;;0.80;;
21032;SDS011;10675;47.976;7.824;2023-04-24T11:02:39;0.90;;;0.90;;
21032;SDS011;10675;47.976;7.824;2023-04-24T11:05:08;1.30;;;0.80;;
21032;SDS011;10675;47.976;7.824;2023-04-24T11:08:09;0.70;;;0.70;;
21032;SDS011;10675;47.976;7.824;2023-04-24T11:10:39;0.70;;;0.70;;
21032;SDS011;10675;47.976;7.824;2023-04-24T11:13:06;0.80;;;0.80;;
21032;SDS011;10675;47.976;7.824;2023-04-24T11:15:32;2.27;;;0.70;;
21032;SDS011;10675;47.976;7.824;2023-04-24T11:17:57;1.10;;;0.80;;
21032;SDS011;10675;47.976;7.824;2023-04-24T11:20:23;2.03;;;1.13;;
21032;SDS011;10675;47.976;7.824;2023-04-24T11:22:52;1.90;;;1.00;;
21032;SDS011;10675;47.976;7.824;2023-04-24T11:25:19;2.57;;;1.13;;
21032;SDS011;10675;47.976;7.824;2023-04-24T11:27:47;1.00;;;1.00;;
21032;SDS011;10675;47.976;7.824;2023-04-24T11:30:17;3.60;;;1.17;;
21032;SDS011;10675;47.976;7.824;2023-04-24T11:32:47;1.23;;;0.70;;
21032;SDS011;10675;47.976;7.824;2023-04-24T11:35:15;1.00;;;0.90;;
21032;SDS011;10675;47.976;7.824;2023-04-24T11:37:44;2.33;;;0.77;;
21032;SDS011;10675;47.976;7.824;2023-04-24T11:40:12;0.97;;;0.87;;
21032;SDS011;10675;47.976;7.824;2023-04-24T11:42:42;1.13;;;1.10;;
21032;SDS011;10675;47.976;7.824;2023-04-24T11:45:13;1.87;;;1.10;;
21032;SDS011;10675;47.976;7.824;2023-04-24T11:47:39;1.23;;;1.10;;
21032;SDS011;10675;47.976;7.824;2023-04-24T11:50:06;1.07;;;0.80;;
21032;SDS011;10675;47.976;7.824;2023-04-24T11:52:36;1.87;;;0.93;;
21032;SDS011;10675;47.976;7.824;2023-04-24T11:55:03;2.13;;;1.00;;
21032;SDS011;10675;47.976;7.824;2023-04-24T11:57:29;1.33;;;0.90;;
21032;SDS011;10675;47.976;7.824;2023-04-24T11:59:59;0.80;;;0.80;;
21032;SDS011;10675;47.976;7.824;2023-04-24T12:02:26;2.90;;;1.20;;
21032;SDS011;10675;47.976;7.824;2023-04-24T12:04:52;0.67;;;0.67;;
21032;SDS011;10675;47.976;7.824;2023-04-24T12:07:19;2.40;;;0.90;;
21032;SDS011;10675;47.976;7.824;2023-04-24T12:12:13;2.20;;;1.07;;
21032;SDS011;10675;47.976;7.824;2023-04-24T12:14:51;1.33;;;1.00;;
21032;SDS011;10675;47.976;7.824;2023-04-24T12:17:23;1.83;;;0.90;;
21032;SDS011;10675;47.976;7.824;2023-04-24T12:19:57;0.87;;;0.83;;
21032;SDS011;10675;47.976;7.824;2023-04-24T12:22:45;4.03;;;1.00;;
21032;SDS011;10675;47.976;7.824;2023-04-24T12:25:13;1.10;;;1.00;;
21032;SDS011;10675;47.976;7.824;2023-04-24T12:27:43;2.07;;;0.90;;
21032;SDS011;10675;47.976;7.824;2023-04-24T12:30:16;1.40;;;0.80;;
21032;SDS011;10675;47.976;7.824;2023-04-24T12:32:46;0.90;;;0.90;;
21032;SDS011;10675;47.976;7.824;2023-04-24T12:35:13;1.00;;;1.00;;
21032;SDS011;10675;47.976;7.824;2023-04-24T12:37:44;1.30;;;1.20;;
21032;SDS011;10675;47.976;7.824;2023-04-24T12:40:10;3.60;;;1.27;;
21032;SDS011;10675;47.976;7.824;2023-04-24T12:45:09;1.20;;;1.10;;
21032;SDS011;10675;47.976;7.824;2023-04-24T12:47:37;1.30;;;1.20;;
21032;SDS011;10675;47.976;7.824;2023-04-24T12:50:03;1.07;;;0.97;;
21032;SDS011;10675;47.976;7.824;2023-04-24T12:52:30;1.97;;;0.97;;
21032;SDS011;10675;47.976;7.824;2023-04-24T12:54:56;1.20;;;0.97;;
21032;SDS011;10675;47.976;7.824;2023-04-24T12:57:23;1.40;;;1.23;;
21032;SDS011;10675;47.976;7.824;2023-04-24T12:59:50;1.03;;;1.03;;
21032;SDS011;10675;47.976;7.824;2023-04-24T13:02:17;1.00;;;1.00;;
21032;SDS011;10675;47.976;7.824;2023-04-24T13:04:46;1.50;;;1.10;;
21032;SDS011;10675;47.976;7.824;2023-04-24T13:07:12;2.07;;;1.30;;
21032;SDS011;10675;47.976;7.824;2023-04-24T13:09:39;0.90;;;0.90;;
21032;SDS011;10675;47.976;7.824;2023-04-24T13:12:05;1.57;;;0.90;;
21032;SDS011;10675;47.976;7.824;2023-04-24T13:14:32;2.10;;;1.00;;
21032;SDS011;10675;47.976;7.824;2023-04-24T13:16:58;1.30;;;1.20;;
21032;SDS011;10675;47.976;7.824;2023-04-24T13:19:24;1.20;;;1.00;;
21032;SDS011;10675;47.976;7.824;2023-04-24T13:21:56;1.20;;;1.10;;
21032;SDS011;10675;47.976;7.824;2023-04-24T13:24:25;2.03;;;0.90;;
21032;SDS011;10675;47.976;7.824;2023-04-24T13:26:51;3.80;;;1.10;;
21032;SDS011;10675;47.976;7.824;2023-04-24T13:29:17;0.90;;;0.90;;
21032;SDS011;10675;47.976;7.824;2023-04-24T13:31:42;1.67;;;1.20;;
21032;SDS011;10675;47.976;7.824;2023-04-24T13:34:08;1.47;;;1.07;;
21032;SDS011;10675;47.976;7.824;2023-04-24T13:36:34;0.83;;;0.83;;
21032;SDS011;10675;47.976;7.824;2023-04-24T13:39:00;1.03;;;1.03;;
21032;SDS011;10675;47.976;7.824;2023-04-24T13:41:26;1.03;;;0.97;;
21032;SDS011;10675;47.976;7.824;2023-04-24T13:43:51;2.00;;;1.03;;
21032;SDS011;10675;47.976;7.824;2023-04-24T13:46:17;4.13;;;1.03;;
21032;SDS011;10675;47.976;7.824;2023-04-24T13:48:42;2.80;;;1.13;;
21032;SDS011;10675;47.976;7.824;2023-04-24T13:51:08;2.33;;;1.10;;
21032;SDS011;10675;47.976;7.824;2023-04-24T13:53:33;1.30;;;1.20;;
21032;SDS011;10675;47.976;7.824;2023-04-24T13:56:03;1.83;;;1.50;;
21032;SDS011;10675;47.976;7.824;2023-04-24T13:58:28;1.27;;;1.20;;
21032;SDS011;10675;47.976;7.824;2023-04-24T14:00:54;1.50;;;1.17;;
21032;SDS011;10675;47.976;7.824;2023-04-24T14:03:20;1.37;;;1.10;;
21032;SDS011;10675;47.976;7.824;2023-04-24T14:05:45;2.37;;;1.10;;
21032;SDS011;10675;47.976;7.824;2023-04-24T14:08:11;1.07;;;1.00;;
21032;SDS011;10675;47.976;7.824;2023-04-24T14:10:36;1.30;;;1.20;;
21032;SDS011;10675;47.976;7.824;2023-04-24T14:13:02;1.10;;;1.10;;
21032;SDS011;10675;47.976;7.824;2023-04-24T14:15:28;1.80;;;0.93;;
21032;SDS011;10675;47.976;7.824;2023-04-24T14:17:53;1.37;;;1.00;;
21032;SDS011;10675;47.976;7.824;2023-04-24T14:20:19;1.07;;;0.97;;
21032;SDS011;10675;47.976;7.824;2023-04-24T14:22:45;2.50;;;1.43;;
21032;SDS011;10675;47.976;7.824;2023-04-24T14:25:10;1.63;;;1.30;;
21032;SDS011;10675;47.976;7.824;2023-04-24T14:27:36;2.43;;;0.97;;
21032;SDS011;10675;47.976;7.824;2023-04-24T14:30:02;0.87;;;0.87;;
21032;SDS011;10675;47.976;7.824;2023-04-24T14:32:28;1.00;;;1.00;;
21032;SDS011;10675;47.976;7.824;2023-04-24T14:34:53;1.20;;;1.10;;
21032;SDS011;10675;47.976;7.824;2023-04-24T14:37:19;1.17;;;1.10;;
21032;SDS011;10675;47.976;7.824;2023-04-24T14:39:45;0.90;;;0.90;;
21032;SDS011;10675;47.976;7.824;2023-04-24T14:42:11;1.30;;;1.20;;
21032;SDS011;10675;47.976;7.824;2023-04-24T14:44:36;2.30;;;1.13;;
21032;SDS011;10675;47.976;7.824;2023-04-24T14:47:02;1.03;;;1.03;;
21032;SDS011;10675;47.976;7.824;2023-04-24T14:49:27;1.00;;;1.00;;
21032;SDS011;10675;47.976;7.824;2023-04-24T14:51:53;1.00;;;1.00;;
21032;SDS011;10675;47.976;7.824;2023-04-24T14:54:18;4.87;;;1.23;;
21032;SDS011;10675;47.976;7.824;2023-04-24T14:56:44;1.33;;;1.23;;
21032;SDS011;10675;47.976;7.824;2023-04-24T14:59:10;3.33;;;1.20;;
21032;SDS011;10675;47.976;7.824;2023-04-24T15:01:35;1.17;;;1.10;;
21032;SDS011;10675;47.976;7.824;2023-04-24T15:04:01;1.30;;;1.20;;